sensor_id;sensor_type;location;lat;lon;timestamp;P1;P2;P0
75960;PMS7003;64644;48.914;2.254;2023-08-30T00:01:55;4.75;4.75;3.00
75960;PMS7003;64644;48.914;2.254;2023-08-30T00:04:21;11.00;7.25;5.00
75960;PMS7003;64644;48.914;2.254;2023-08-30T00:06:47;8.75;5.00;4.00
75960;PMS7003;64644;48.914;2.254;2023-08-30T00:09:13;6.00;6.00;4.25
75960;PMS7003;64644;48.914;2.254;2023-08-30T00:11:38;6.00;5.75;4.00
75960;PMS7003;64644;48.914;2.254;2023-08-30T00:14:05;8.75;8.75;5.25
75960;PMS7003;64644;48.914;2.254;2023-08-30T00:16:32;4.00;4.00;3.75
75960;PMS7003;64644;48.914;2.254;2023-08-30T00:18:58;8.25;8.25;4.50
75960;PMS7003;64644;48.914;2.254;2023-08-30T00:21:24;8.50;6.75;4.75
75960;PMS7003;64644;48.914;2.254;2023-08-30T00:23:49;3.25;3.25;1.75
75960;PMS7003;64644;48.914;2.254;2023-08-30T00:26:15;6.25;6.25;5.00
75960;PMS7003;64644;48.914;2.254;2023-08-30T00:28:40;6.00;6.00;5.00
75960;PMS7003;64644;48.914;2.254;2023-08-30T00:31:05;7.25;6.00;4.00
75960;PMS7003;64644;48.914;2.254;2023-08-30T00:33:31;9.00;7.00;4.00
75960;PMS7003;64644;48.914;2.254;2023-08-30T00:35:57;5.50;4.25;3.00
75960;PMS7003;64644;48.914;2.254;2023-08-30T00:38:23;6.25;5.75;4.00
75960;PMS7003;64644;48.914;2.254;2023-08-30T00:40:49;6.00;6.00;5.00
75960;PMS7003;64644;48.914;2.254;2023-08-30T00:43:14;6.25;5.75;4.50
75960;PMS7003;64644;48.914;2.254;2023-08-30T00:45:39;8.50;7.00;5.00
75960;PMS7003;64644;48.914;2.254;2023-08-30T00:48:05;6.00;6.00;4.00
75960;PMS7003;64644;48.914;2.254;2023-08-30T00:50:31;5.75;4.50;3.00
75960;PMS7003;64644;48.914;2.254;2023-08-30T00:52:57;8.50;5.00;3.50
75960;PMS7003;64644;48.914;2.254;2023-08-30T00:55:23;6.25;6.25;5.00
75960;PMS7003;64644;48.914;2.254;2023-08-30T00:57:48;8.25;5.75;5.00
75960;PMS7003;64644;48.914;2.254;2023-08-30T01:00:14;5.00;5.00;4.00
75960;PMS7003;64644;48.914;2.254;2023-08-30T01:02:39;9.00;7.00;4.75
75960;PMS7003;64644;48.914;2.254;2023-08-30T01:05:05;6.50;6.50;5.00
75960;PMS7003;64644;48.914;2.254;2023-08-30T01:07:31;5.00;5.00;4.00
75960;PMS7003;64644;48.914;2.254;2023-08-30T01:09:56;6.25;6.25;4.75
75960;PMS7003;64644;48.914;2.254;2023-08-30T01:12:24;6.00;5.50;4.00
75960;PMS7003;64644;48.914;2.254;2023-08-30T01:14:58;4.25;4.25;3.00
75960;PMS7003;64644;48.914;2.254;2023-08-30T01:17:30;5.00;5.00;3.50
75960;PMS7003;64644;48.914;2.254;2023-08-30T01:20:01;8.75;5.75;4.00
75960;PMS7003;64644;48.914;2.254;2023-08-30T01:22:47;5.50;4.00;3.00
75960;PMS7003;64644;48.914;2.254;2023-08-30T01:28:10;5.25;5.25;3.25
75960;PMS7003;64644;48.914;2.254;2023-08-30T01:30:40;4.75;4.75;4.00
75960;PMS7003;64644;48.914;2.254;2023-08-30T01:33:06;4.00;4.00;3.00
75960;PMS7003;64644;48.914;2.254;2023-08-30T01:35:33;4.75;4.75;3.00
75960;PMS7003;64644;48.914;2.254;2023-08-30T01:38:02;5.00;5.00;4.00
75960;PMS7003;64644;48.914;2.254;2023-08-30T01:40:30;4.00;4.00;3.00
75960;PMS7003;64644;48.914;2.254;2023-08-30T01:42:59;6.00;6.00;4.00
75960;PMS7003;64644;48.914;2.254;2023-08-30T01:45:26;3.50;3.00;3.00
75960;PMS7003;64644;48.914;2.254;2023-08-30T01:47:53;6.00;6.00;4.00
75960;PMS7003;64644;48.914;2.254;2023-08-30T01:50:21;6.00;5.00;3.00
75960;PMS7003;64644;48.914;2.254;2023-08-30T01:52:46;3.75;3.00;2.75
75960;PMS7003;64644;48.914;2.254;2023-08-30T01:55:13;3.00;3.00;2.00
75960;PMS7003;64644;48.914;2.254;2023-08-30T01:57:39;4.25;4.00;3.00
75960;PMS7003;64644;48.914;2.254;2023-08-30T02:00:05;5.00;4.00;3.50
75960;PMS7003;64644;48.914;2.254;2023-08-30T02:02:32;2.00;2.00;2.00
75960;PMS7003;64644;48.914;2.254;2023-08-30T02:04:58;4.00;2.00;2.00
75960;PMS7003;64644;48.914;2.254;2023-08-30T02:07:34;3.50;3.50;2.00
75960;PMS7003;64644;48.914;2.254;2023-08-30T02:10:12;3.50;3.25;2.25
75960;PMS7003;64644;48.914;2.254;2023-08-30T02:12:44;2.25;2.25;2.00
75960;PMS7003;64644;48.914;2.254;2023-08-30T02:15:17;3.50;3.50;3.00
75960;PMS7003;64644;48.914;2.254;2023-08-30T02:17:44;3.50;3.50;3.00
75960;PMS7003;64644;48.914;2.254;2023-08-30T02:20:10;2.75;2.75;1.75
75960;PMS7003;64644;48.914;2.254;2023-08-30T02:22:36;4.00;3.00;2.25
75960;PMS7003;64644;48.914;2.254;2023-08-30T02:25:02;2.00;2.00;2.00
75960;PMS7003;64644;48.914;2.254;2023-08-30T02:27:30;3.00;3.00;3.00
75960;PMS7003;64644;48.914;2.254;2023-08-30T02:29:56;2.00;2.00;2.00
75960;PMS7003;64644;48.914;2.254;2023-08-30T02:32:21;2.50;2.50;2.00
75960;PMS7003;64644;48.914;2.254;2023-08-30T02:34:49;2.50;2.50;2.00
75960;PMS7003;64644;48.914;2.254;2023-08-30T02:37:16;1.25;1.25;1.00
75960;PMS7003;64644;48.914;2.254;2023-08-30T02:39:41;3.00;3.00;3.00
75960;PMS7003;64644;48.914;2.254;2023-08-30T02:42:07;3.00;3.00;2.00
75960;PMS7003;64644;48.914;2.254;2023-08-30T02:44:32;2.50;2.50;2.00
75960;PMS7003;64644;48.914;2.254;2023-08-30T02:46:57;2.00;2.00;2.00
75960;PMS7003;64644;48.914;2.254;2023-08-30T02:49:23;2.25;2.25;2.00
75960;PMS7003;64644;48.914;2.254;2023-08-30T02:51:48;2.00;2.00;2.00
75960;PMS7003;64644;48.914;2.254;2023-08-30T02:54:13;1.75;1.00;1.00
75960;PMS7003;64644;48.914;2.254;2023-08-30T02:56:40;1.25;1.25;1.00
75960;PMS7003;64644;48.914;2.254;2023-08-30T02:59:08;3.00;2.00;2.00
75960;PMS7003;64644;48.914;2.254;2023-08-30T03:01:33;2.00;2.00;2.00
75960;PMS7003;64644;48.914;2.254;2023-08-30T03:03:59;3.50;3.00;2.00
75960;PMS7003;64644;48.914;2.254;2023-08-30T03:06:24;3.25;3.25;2.25
75960;PMS7003;64644;48.914;2.254;2023-08-30T03:08:49;4.00;4.00;3.00
75960;PMS7003;64644;48.914;2.254;2023-08-30T03:11:15;3.75;3.75;2.50
75960;PMS7003;64644;48.914;2.254;2023-08-30T03:13:40;2.75;2.75;2.00
75960;PMS7003;64644;48.914;2.254;2023-08-30T03:16:12;2.00;2.00;2.00
75960;PMS7003;64644;48.914;2.254;2023-08-30T03:18:39;3.25;3.00;2.25
75960;PMS7003;64644;48.914;2.254;2023-08-30T03:21:04;3.50;3.50;2.00
75960;PMS7003;64644;48.914;2.254;2023-08-30T03:23:30;4.00;4.00;3.00
75960;PMS7003;64644;48.914;2.254;2023-08-30T03:25:57;3.00;3.00;2.00
75960;PMS7003;64644;48.914;2.254;2023-08-30T03:28:22;2.75;2.75;2.75
75960;PMS7003;64644;48.914;2.254;2023-08-30T03:30:48;2.00;2.00;1.00
75960;PMS7003;64644;48.914;2.254;2023-08-30T03:33:13;3.00;3.00;2.00
75960;PMS7003;64644;48.914;2.254;2023-08-30T03:35:39;2.50;2.50;2.00
75960;PMS7003;64644;48.914;2.254;2023-08-30T03:38:04;2.75;2.75;1.75
75960;PMS7003;64644;48.914;2.254;2023-08-30T03:40:30;5.00;3.75;2.00
75960;PMS7003;64644;48.914;2.254;2023-08-30T03:42:55;3.00;2.75;1.25
75960;PMS7003;64644;48.914;2.254;2023-08-30T03:45:21;3.00;3.00;2.50
75960;PMS7003;64644;48.914;2.254;2023-08-30T03:47:46;2.50;2.50;1.75
75960;PMS7003;64644;48.914;2.254;2023-08-30T03:50:11;7.50;4.75;2.50
75960;PMS7003;64644;48.914;2.254;2023-08-30T03:52:37;6.25;4.75;2.75
75960;PMS7003;64644;48.914;2.254;2023-08-30T03:55:02;2.00;2.00;2.00
75960;PMS7003;64644;48.914;2.254;2023-08-30T03:57:28;3.00;3.00;2.00
75960;PMS7003;64644;48.914;2.254;2023-08-30T03:59:53;6.50;3.50;3.00
75960;PMS7003;64644;48.914;2.254;2023-08-30T04:02:18;4.00;3.00;2.25
75960;PMS7003;64644;48.914;2.254;2023-08-30T04:04:46;4.00;3.00;3.00
75960;PMS7003;64644;48.914;2.254;2023-08-30T04:07:12;3.75;3.75;3.00
75960;PMS7003;64644;48.914;2.254;2023-08-30T04:09:38;2.75;2.75;2.00
75960;PMS7003;64644;48.914;2.254;2023-08-30T04:12:04;4.00;2.00;2.00
75960;PMS7003;64644;48.914;2.254;2023-08-30T04:14:30;3.75;3.50;2.75
75960;PMS7003;64644;48.914;2.254;2023-08-30T04:16:56;3.50;2.50;2.00
75960;PMS7003;64644;48.914;2.254;2023-08-30T04:19:21;4.00;4.00;2.00
75960;PMS7003;64644;48.914;2.254;2023-08-30T04:21:46;4.50;3.00;2.00
75960;PMS7003;64644;48.914;2.254;2023-08-30T04:24:12;2.00;2.00;2.00
75960;PMS7003;64644;48.914;2.254;2023-08-30T04:26:39;4.75;4.00;2.75
75960;PMS7003;64644;48.914;2.254;2023-08-30T04:29:04;3.75;2.00;1.00
75960;PMS7003;64644;48.914;2.254;2023-08-30T04:31:29;4.00;4.00;3.00
75960;PMS7003;64644;48.914;2.254;2023-08-30T04:33:55;3.00;3.00;2.00
75960;PMS7003;64644;48.914;2.254;2023-08-30T04:36:20;4.25;3.25;2.25
75960;PMS7003;64644;48.914;2.254;2023-08-30T04:38:46;2.00;2.00;2.00
75960;PMS7003;64644;48.914;2.254;2023-08-30T04:41:12;4.00;4.00;2.75
75960;PMS7003;64644;48.914;2.254;2023-08-30T04:43:37;4.75;4.00;2.75
75960;PMS7003;64644;48.914;2.254;2023-08-30T04:46:02;3.50;2.50;2.00
75960;PMS7003;64644;48.914;2.254;2023-08-30T04:48:28;7.00;4.50;3.25
75960;PMS7003;64644;48.914;2.254;2023-08-30T04:51:00;7.00;4.50;2.25
75960;PMS7003;64644;48.914;2.254;2023-08-30T04:53:28;5.75;3.00;1.50
75960;PMS7003;64644;48.914;2.254;2023-08-30T04:55:53;3.50;3.50;2.00
75960;PMS7003;64644;48.914;2.254;2023-08-30T04:58:19;6.50;4.50;2.25
75960;PMS7003;64644;48.914;2.254;2023-08-30T05:00:44;3.50;3.50;2.25
75960;PMS7003;64644;48.914;2.254;2023-08-30T05:03:09;3.00;3.00;2.00
75960;PMS7003;64644;48.914;2.254;2023-08-30T05:05:35;3.25;3.25;3.00
75960;PMS7003;64644;48.914;2.254;2023-08-30T05:08:00;5.25;3.75;3.00
75960;PMS7003;64644;48.914;2.254;2023-08-30T05:10:25;3.00;3.00;2.25
75960;PMS7003;64644;48.914;2.254;2023-08-30T05:12:51;3.25;3.25;2.00
75960;PMS7003;64644;48.914;2.254;2023-08-30T05:15:17;4.00;4.00;3.00
75960;PMS7003;64644;48.914;2.254;2023-08-30T05:17:43;2.75;2.75;2.50
75960;PMS7003;64644;48.914;2.254;2023-08-30T05:20:08;3.50;1.50;1.00
75960;PMS7003;64644;48.914;2.254;2023-08-30T05:22:34;3.25;3.00;2.00
75960;PMS7003;64644;48.914;2.254;2023-08-30T05:25:00;3.00;3.00;2.00
75960;PMS7003;64644;48.914;2.254;2023-08-30T05:27:26;3.50;2.75;2.00
75960;PMS7003;64644;48.914;2.254;2023-08-30T05:29:52;7.50;5.00;3.00
75960;PMS7003;64644;48.914;2.254;2023-08-30T05:32:17;4.00;4.00;2.75
75960;PMS7003;64644;48.914;2.254;2023-08-30T05:34:43;5.50;3.00;2.00
75960;PMS7003;64644;48.914;2.254;2023-08-30T05:37:08;2.50;2.50;2.00
75960;PMS7003;64644;48.914;2.254;2023-08-30T05:39:34;4.00;3.75;3.00
75960;PMS7003;64644;48.914;2.254;2023-08-30T05:42:00;3.50;3.25;2.00
75960;PMS7003;64644;48.914;2.254;2023-08-30T05:44:26;3.00;3.00;2.00
75960;PMS7003;64644;48.914;2.254;2023-08-30T05:46:51;2.50;2.50;2.00
75960;PMS7003;64644;48.914;2.254;2023-08-30T05:49:16;8.50;3.00;2.00
75960;PMS7003;64644;48.914;2.254;2023-08-30T05:51:42;3.75;3.00;2.50
75960;PMS7003;64644;48.914;2.254;2023-08-30T05:54:07;3.00;3.00;2.00
75960;PMS7003;64644;48.914;2.254;2023-08-30T05:56:33;2.25;2.25;2.00
75960;PMS7003;64644;48.914;2.254;2023-08-30T05:58:58;6.00;2.50;2.00
75960;PMS7003;64644;48.914;2.254;2023-08-30T06:01:23;6.75;6.75;3.00
75960;PMS7003;64644;48.914;2.254;2023-08-30T06:03:49;4.50;4.25;3.00
75960;PMS7003;64644;48.914;2.254;2023-08-30T06:06:15;5.00;5.00;3.00
75960;PMS7003;64644;48.914;2.254;2023-08-30T06:08:41;3.25;3.25;2.25
75960;PMS7003;64644;48.914;2.254;2023-08-30T06:11:06;4.25;4.25;3.25
75960;PMS7003;64644;48.914;2.254;2023-08-30T06:13:32;4.00;4.00;2.50
75960;PMS7003;64644;48.914;2.254;2023-08-30T06:15:57;3.25;3.25;2.00
75960;PMS7003;64644;48.914;2.254;2023-08-30T06:18:22;5.00;4.00;2.75
75960;PMS7003;64644;48.914;2.254;2023-08-30T06:20:48;3.00;3.00;2.00
75960;PMS7003;64644;48.914;2.254;2023-08-30T06:23:14;3.00;3.00;3.00
75960;PMS7003;64644;48.914;2.254;2023-08-30T06:25:40;3.50;3.50;2.50
75960;PMS7003;64644;48.914;2.254;2023-08-30T06:28:06;6.00;5.00;3.00
75960;PMS7003;64644;48.914;2.254;2023-08-30T06:30:31;4.50;3.25;3.00
75960;PMS7003;64644;48.914;2.254;2023-08-30T06:32:57;4.25;4.25;2.50
75960;PMS7003;64644;48.914;2.254;2023-08-30T06:35:23;5.75;4.00;3.00
75960;PMS7003;64644;48.914;2.254;2023-08-30T06:37:49;4.75;4.75;3.75
75960;PMS7003;64644;48.914;2.254;2023-08-30T06:40:14;5.00;3.00;2.00
75960;PMS7003;64644;48.914;2.254;2023-08-30T06:42:40;4.75;4.75;2.75
75960;PMS7003;64644;48.914;2.254;2023-08-30T06:45:05;2.25;2.25;1.25
75960;PMS7003;64644;48.914;2.254;2023-08-30T06:47:31;5.50;5.50;4.00
75960;PMS7003;64644;48.914;2.254;2023-08-30T06:49:57;3.75;3.75;3.00
75960;PMS7003;64644;48.914;2.254;2023-08-30T06:52:22;2.75;2.75;2.25
75960;PMS7003;64644;48.914;2.254;2023-08-30T06:54:48;2.25;2.25;2.00
75960;PMS7003;64644;48.914;2.254;2023-08-30T06:57:13;3.50;3.25;2.50
75960;PMS7003;64644;48.914;2.254;2023-08-30T06:59:39;3.00;3.00;1.00
75960;PMS7003;64644;48.914;2.254;2023-08-30T07:02:04;2.25;2.00;1.00
75960;PMS7003;64644;48.914;2.254;2023-08-30T07:04:29;5.75;3.00;2.00
75960;PMS7003;64644;48.914;2.254;2023-08-30T07:06:55;2.50;2.00;1.00
75960;PMS7003;64644;48.914;2.254;2023-08-30T07:09:21;3.50;2.50;2.00
75960;PMS7003;64644;48.914;2.254;2023-08-30T07:11:53;2.00;1.50;1.00
75960;PMS7003;64644;48.914;2.254;2023-08-30T07:14:18;2.00;2.00;1.00
75960;PMS7003;64644;48.914;2.254;2023-08-30T07:16:43;3.25;2.00;1.00
75960;PMS7003;64644;48.914;2.254;2023-08-30T07:19:09;3.00;3.00;2.00
75960;PMS7003;64644;48.914;2.254;2023-08-30T07:21:35;2.25;2.25;1.25
75960;PMS7003;64644;48.914;2.254;2023-08-30T07:24:03;4.00;2.75;2.00
75960;PMS7003;64644;48.914;2.254;2023-08-30T07:26:28;1.25;1.25;1.00
75960;PMS7003;64644;48.914;2.254;2023-08-30T07:28:54;4.00;2.50;1.75
75960;PMS7003;64644;48.914;2.254;2023-08-30T07:31:19;3.25;2.50;1.00
75960;PMS7003;64644;48.914;2.254;2023-08-30T07:33:46;3.00;1.50;1.50
75960;PMS7003;64644;48.914;2.254;2023-08-30T07:36:11;3.75;2.00;1.00
75960;PMS7003;64644;48.914;2.254;2023-08-30T07:38:37;2.00;2.00;1.00
75960;PMS7003;64644;48.914;2.254;2023-08-30T07:41:03;0.75;0.75;0.00
75960;PMS7003;64644;48.914;2.254;2023-08-30T07:43:28;4.25;2.50;1.00
75960;PMS7003;64644;48.914;2.254;2023-08-30T07:45:54;1.50;1.00;1.00
75960;PMS7003;64644;48.914;2.254;2023-08-30T07:48:19;3.25;1.50;1.25
75960;PMS7003;64644;48.914;2.254;2023-08-30T07:50:44;2.00;2.00;1.00
75960;PMS7003;64644;48.914;2.254;2023-08-30T07:53:10;3.25;2.50;1.00
75960;PMS7003;64644;48.914;2.254;2023-08-30T07:55:36;3.25;2.50;1.00
75960;PMS7003;64644;48.914;2.254;2023-08-30T07:58:01;2.25;2.00;1.75
75960;PMS7003;64644;48.914;2.254;2023-08-30T08:00:28;2.75;2.75;2.00
75960;PMS7003;64644;48.914;2.254;2023-08-30T08:02:54;5.00;2.00;2.00
75960;PMS7003;64644;48.914;2.254;2023-08-30T08:05:19;2.00;2.00;1.00
75960;PMS7003;64644;48.914;2.254;2023-08-30T08:07:44;2.00;2.00;1.00
75960;PMS7003;64644;48.914;2.254;2023-08-30T08:10:10;1.25;1.00;1.00
75960;PMS7003;64644;48.914;2.254;2023-08-30T08:12:35;2.00;2.00;1.75
75960;PMS7003;64644;48.914;2.254;2023-08-30T08:15:01;3.50;2.00;2.00
75960;PMS7003;64644;48.914;2.254;2023-08-30T08:17:27;2.00;2.00;2.00
75960;PMS7003;64644;48.914;2.254;2023-08-30T08:19:52;2.00;2.00;1.00
75960;PMS7003;64644;48.914;2.254;2023-08-30T08:22:17;2.00;2.00;2.00
75960;PMS7003;64644;48.914;2.254;2023-08-30T08:24:43;2.00;2.00;2.00
75960;PMS7003;64644;48.914;2.254;2023-08-30T08:27:11;4.25;3.00;2.00
75960;PMS7003;64644;48.914;2.254;2023-08-30T08:29:36;3.00;3.00;2.00
75960;PMS7003;64644;48.914;2.254;2023-08-30T08:32:02;5.75;4.25;2.00
75960;PMS7003;64644;48.914;2.254;2023-08-30T08:34:28;2.50;2.50;1.75
75960;PMS7003;64644;48.914;2.254;2023-08-30T08:36:53;3.75;3.75;2.00
75960;PMS7003;64644;48.914;2.254;2023-08-30T08:39:18;1.75;1.75;1.25
75960;PMS7003;64644;48.914;2.254;2023-08-30T08:41:44;5.25;4.00;3.00
75960;PMS7003;64644;48.914;2.254;2023-08-30T08:44:10;2.75;2.50;2.00
75960;PMS7003;64644;48.914;2.254;2023-08-30T08:46:37;3.50;2.75;2.00
75960;PMS7003;64644;48.914;2.254;2023-08-30T08:49:08;4.75;4.50;2.00
75960;PMS7003;64644;48.914;2.254;2023-08-30T08:51:34;5.50;3.00;2.00
75960;PMS7003;64644;48.914;2.254;2023-08-30T08:54:02;2.00;2.00;1.00
75960;PMS7003;64644;48.914;2.254;2023-08-30T08:56:29;3.00;3.00;1.00
75960;PMS7003;64644;48.914;2.254;2023-08-30T08:58:56;2.00;2.00;2.00
75960;PMS7003;64644;48.914;2.254;2023-08-30T09:01:21;3.00;2.00;2.00
75960;PMS7003;64644;48.914;2.254;2023-08-30T09:03:47;4.00;3.50;1.75
75960;PMS7003;64644;48.914;2.254;2023-08-30T09:06:13;1.00;1.00;1.00
75960;PMS7003;64644;48.914;2.254;2023-08-30T09:08:40;2.00;2.00;1.25
75960;PMS7003;64644;48.914;2.254;2023-08-30T09:11:05;3.25;3.25;2.50
75960;PMS7003;64644;48.914;2.254;2023-08-30T09:13:31;3.00;2.25;1.00
75960;PMS7003;64644;48.914;2.254;2023-08-30T09:15:56;2.00;2.00;1.00
75960;PMS7003;64644;48.914;2.254;2023-08-30T09:18:22;6.00;3.00;2.00
75960;PMS7003;64644;48.914;2.254;2023-08-30T09:20:52;1.75;1.75;1.00
75960;PMS7003;64644;48.914;2.254;2023-08-30T09:23:19;2.00;2.00;2.00
75960;PMS7003;64644;48.914;2.254;2023-08-30T09:25:55;4.50;2.00;1.00
75960;PMS7003;64644;48.914;2.254;2023-08-30T09:28:21;1.50;1.00;1.00
75960;PMS7003;64644;48.914;2.254;2023-08-30T09:30:52;1.25;1.25;1.00
75960;PMS7003;64644;48.914;2.254;2023-08-30T09:33:21;2.00;2.00;0.50
75960;PMS7003;64644;48.914;2.254;2023-08-30T09:35:47;4.25;2.25;2.00
75960;PMS7003;64644;48.914;2.254;2023-08-30T09:38:19;1.00;1.00;0.75
75960;PMS7003;64644;48.914;2.254;2023-08-30T09:40:44;2.00;1.00;1.00
75960;PMS7003;64644;48.914;2.254;2023-08-30T09:43:11;1.25;1.00;1.00
75960;PMS7003;64644;48.914;2.254;2023-08-30T09:45:37;2.00;2.00;1.50
75960;PMS7003;64644;48.914;2.254;2023-08-30T09:48:03;2.00;2.00;1.75
75960;PMS7003;64644;48.914;2.254;2023-08-30T09:50:32;4.00;2.75;2.00
75960;PMS7003;64644;48.914;2.254;2023-08-30T09:53:00;2.00;2.00;1.00
75960;PMS7003;64644;48.914;2.254;2023-08-30T09:55:31;1.00;1.00;1.00
75960;PMS7003;64644;48.914;2.254;2023-08-30T09:57:58;2.50;2.50;2.00
75960;PMS7003;64644;48.914;2.254;2023-08-30T10:00:24;3.50;2.00;1.00
75960;PMS7003;64644;48.914;2.254;2023-08-30T10:02:50;2.00;1.75;1.00
75960;PMS7003;64644;48.914;2.254;2023-08-30T10:05:16;3.00;3.00;2.00
75960;PMS7003;64644;48.914;2.254;2023-08-30T10:07:43;4.00;3.00;2.00
75960;PMS7003;64644;48.914;2.254;2023-08-30T10:10:09;3.25;3.25;1.75
75960;PMS7003;64644;48.914;2.254;2023-08-30T10:12:35;3.00;3.00;2.00
75960;PMS7003;64644;48.914;2.254;2023-08-30T10:15:04;2.50;2.50;1.75
75960;PMS7003;64644;48.914;2.254;2023-08-30T10:17:33;3.25;3.25;2.25
75960;PMS7003;64644;48.914;2.254;2023-08-30T10:20:01;4.00;4.00;2.00
75960;PMS7003;64644;48.914;2.254;2023-08-30T10:22:31;2.00;1.25;1.00
75960;PMS7003;64644;48.914;2.254;2023-08-30T10:25:01;6.00;3.25;2.00
75960;PMS7003;64644;48.914;2.254;2023-08-30T10:27:34;4.75;3.50;3.00
75960;PMS7003;64644;48.914;2.254;2023-08-30T10:30:01;5.00;3.75;1.75
75960;PMS7003;64644;48.914;2.254;2023-08-30T10:32:29;2.00;2.00;2.00
75960;PMS7003;64644;48.914;2.254;2023-08-30T10:34:55;3.00;3.00;1.00
75960;PMS7003;64644;48.914;2.254;2023-08-30T10:37:26;2.75;2.75;1.25
75960;PMS7003;64644;48.914;2.254;2023-08-30T10:39:52;3.00;3.00;2.25
75960;PMS7003;64644;48.914;2.254;2023-08-30T10:42:21;2.75;2.25;1.75
75960;PMS7003;64644;48.914;2.254;2023-08-30T10:47:23;5.00;4.25;3.00
75960;PMS7003;64644;48.914;2.254;2023-08-30T10:49:53;2.25;2.25;2.00
75960;PMS7003;64644;48.914;2.254;2023-08-30T10:52:20;2.50;2.00;2.00
75960;PMS7003;64644;48.914;2.254;2023-08-30T10:54:45;2.25;2.25;2.00
75960;PMS7003;64644;48.914;2.254;2023-08-30T10:57:15;3.00;2.50;2.00
75960;PMS7003;64644;48.914;2.254;2023-08-30T11:02:34;3.50;3.50;2.00
75960;PMS7003;64644;48.914;2.254;2023-08-30T11:05:01;3.00;3.00;2.00
75960;PMS7003;64644;48.914;2.254;2023-08-30T11:07:28;4.50;4.00;2.00
75960;PMS7003;64644;48.914;2.254;2023-08-30T11:09:54;2.25;2.25;1.25
75960;PMS7003;64644;48.914;2.254;2023-08-30T11:12:19;2.25;1.50;1.00
75960;PMS7003;64644;48.914;2.254;2023-08-30T11:14:48;4.25;2.50;2.00
75960;PMS7003;64644;48.914;2.254;2023-08-30T11:17:16;4.00;2.25;2.00
75960;PMS7003;64644;48.914;2.254;2023-08-30T11:19:45;2.00;2.00;2.00
75960;PMS7003;64644;48.914;2.254;2023-08-30T11:22:13;2.50;2.50;2.00
75960;PMS7003;64644;48.914;2.254;2023-08-30T11:24:39;2.00;2.00;2.00
75960;PMS7003;64644;48.914;2.254;2023-08-30T11:27:04;5.25;4.00;2.50
75960;PMS7003;64644;48.914;2.254;2023-08-30T11:29:30;2.50;2.50;2.00
75960;PMS7003;64644;48.914;2.254;2023-08-30T11:31:55;2.75;2.75;2.00
75960;PMS7003;64644;48.914;2.254;2023-08-30T11:34:21;3.50;3.50;2.50
75960;PMS7003;64644;48.914;2.254;2023-08-30T11:36:47;2.75;2.75;2.00
75960;PMS7003;64644;48.914;2.254;2023-08-30T11:39:14;4.75;3.50;3.00
75960;PMS7003;64644;48.914;2.254;2023-08-30T11:41:41;3.00;3.00;2.75
75960;PMS7003;64644;48.914;2.254;2023-08-30T11:44:07;1.50;1.50;1.00
75960;PMS7003;64644;48.914;2.254;2023-08-30T11:46:33;2.75;2.75;2.00
75960;PMS7003;64644;48.914;2.254;2023-08-30T11:48:58;2.00;2.00;1.75
75960;PMS7003;64644;48.914;2.254;2023-08-30T11:51:24;3.00;2.50;2.00
75960;PMS7003;64644;48.914;2.254;2023-08-30T11:53:50;4.00;4.00;3.00
75960;PMS7003;64644;48.914;2.254;2023-08-30T11:56:16;3.75;3.75;3.00
75960;PMS7003;64644;48.914;2.254;2023-08-30T11:58:42;3.00;1.75;0.25
75960;PMS7003;64644;48.914;2.254;2023-08-30T12:01:08;5.00;4.50;3.00
75960;PMS7003;64644;48.914;2.254;2023-08-30T12:03:34;4.75;3.75;2.25
75960;PMS7003;64644;48.914;2.254;2023-08-30T12:06:00;4.25;4.25;3.00
75960;PMS7003;64644;48.914;2.254;2023-08-30T12:08:27;4.25;4.00;3.00
75960;PMS7003;64644;48.914;2.254;2023-08-30T12:10:54;4.25;4.25;3.25
75960;PMS7003;64644;48.914;2.254;2023-08-30T12:13:22;4.00;3.00;2.50
75960;PMS7003;64644;48.914;2.254;2023-08-30T12:15:48;4.00;4.00;4.00
75960;PMS7003;64644;48.914;2.254;2023-08-30T12:18:14;4.75;3.75;3.00
75960;PMS7003;64644;48.914;2.254;2023-08-30T12:20:39;6.00;5.75;4.00
75960;PMS7003;64644;48.914;2.254;2023-08-30T12:23:22;5.75;5.75;3.25
75960;PMS7003;64644;48.914;2.254;2023-08-30T12:26:01;4.25;4.25;3.25
75960;PMS7003;64644;48.914;2.254;2023-08-30T12:28:31;5.00;4.00;4.00
75960;PMS7003;64644;48.914;2.254;2023-08-30T12:30:58;3.75;3.75;3.25
75960;PMS7003;64644;48.914;2.254;2023-08-30T12:33:24;5.00;5.00;3.25
75960;PMS7003;64644;48.914;2.254;2023-08-30T12:35:56;5.00;5.00;3.50
75960;PMS7003;64644;48.914;2.254;2023-08-30T12:38:22;5.00;5.00;4.00
75960;PMS7003;64644;48.914;2.254;2023-08-30T12:40:49;5.00;5.00;4.00
75960;PMS7003;64644;48.914;2.254;2023-08-30T12:43:17;4.75;3.00;2.75
75960;PMS7003;64644;48.914;2.254;2023-08-30T12:45:43;5.00;4.75;3.25
75960;PMS7003;64644;48.914;2.254;2023-08-30T12:48:13;6.00;5.25;4.00
75960;PMS7003;64644;48.914;2.254;2023-08-30T12:50:40;3.00;3.00;3.00
75960;PMS7003;64644;48.914;2.254;2023-08-30T12:53:07;6.25;6.25;3.25
75960;PMS7003;64644;48.914;2.254;2023-08-30T12:55:33;6.00;4.50;4.00
75960;PMS7003;64644;48.914;2.254;2023-08-30T12:58:06;2.00;1.50;1.25
75960;PMS7003;64644;48.914;2.254;2023-08-30T13:00:32;4.00;4.00;3.75
75960;PMS7003;64644;48.914;2.254;2023-08-30T13:02:58;3.00;3.00;2.25
75960;PMS7003;64644;48.914;2.254;2023-08-30T13:05:24;4.50;3.25;3.00
75960;PMS7003;64644;48.914;2.254;2023-08-30T13:07:49;3.00;3.00;2.00
75960;PMS7003;64644;48.914;2.254;2023-08-30T13:10:15;3.00;3.00;2.25
75960;PMS7003;64644;48.914;2.254;2023-08-30T13:12:41;3.00;3.00;2.75
75960;PMS7003;64644;48.914;2.254;2023-08-30T13:15:07;5.00;3.00;2.50
75960;PMS7003;64644;48.914;2.254;2023-08-30T13:17:33;2.75;2.75;2.00
75960;PMS7003;64644;48.914;2.254;2023-08-30T13:19:58;7.00;4.00;3.00
75960;PMS7003;64644;48.914;2.254;2023-08-30T13:22:24;6.50;4.75;4.00
75960;PMS7003;64644;48.914;2.254;2023-08-30T13:24:51;4.75;4.75;2.75
75960;PMS7003;64644;48.914;2.254;2023-08-30T13:27:17;4.75;4.00;4.00
75960;PMS7003;64644;48.914;2.254;2023-08-30T13:29:43;3.50;3.50;3.00
75960;PMS7003;64644;48.914;2.254;2023-08-30T13:32:08;3.75;3.75;3.00
75960;PMS7003;64644;48.914;2.254;2023-08-30T13:34:33;4.25;4.00;2.25
75960;PMS7003;64644;48.914;2.254;2023-08-30T13:36:59;3.75;3.75;3.00
75960;PMS7003;64644;48.914;2.254;2023-08-30T13:39:24;3.25;3.25;2.00
75960;PMS7003;64644;48.914;2.254;2023-08-30T13:41:49;2.50;2.50;2.00
75960;PMS7003;64644;48.914;2.254;2023-08-30T13:44:15;3.75;3.75;3.75
75960;PMS7003;64644;48.914;2.254;2023-08-30T13:46:41;3.00;3.00;2.00
75960;PMS7003;64644;48.914;2.254;2023-08-30T13:49:07;2.00;2.00;1.75
75960;PMS7003;64644;48.914;2.254;2023-08-30T13:51:33;4.00;4.00;2.25
75960;PMS7003;64644;48.914;2.254;2023-08-30T13:53:58;2.00;2.00;1.75
75960;PMS7003;64644;48.914;2.254;2023-08-30T13:56:24;3.75;2.25;2.00
75960;PMS7003;64644;48.914;2.254;2023-08-30T13:58:49;2.25;2.25;2.00
75960;PMS7003;64644;48.914;2.254;2023-08-30T14:01:15;2.00;2.00;2.00
75960;PMS7003;64644;48.914;2.254;2023-08-30T14:03:41;2.50;2.50;2.00
75960;PMS7003;64644;48.914;2.254;2023-08-30T14:06:07;2.75;2.50;2.00
75960;PMS7003;64644;48.914;2.254;2023-08-30T14:08:33;3.00;3.00;3.00
75960;PMS7003;64644;48.914;2.254;2023-08-30T14:10:58;3.00;2.75;2.00
75960;PMS7003;64644;48.914;2.254;2023-08-30T14:13:24;3.75;3.75;3.00
75960;PMS7003;64644;48.914;2.254;2023-08-30T14:15:49;3.25;3.00;3.00
75960;PMS7003;64644;48.914;2.254;2023-08-30T14:18:15;3.25;3.25;2.75
75960;PMS7003;64644;48.914;2.254;2023-08-30T14:20:41;4.00;4.00;3.00
75960;PMS7003;64644;48.914;2.254;2023-08-30T14:23:07;4.00;4.00;2.25
75960;PMS7003;64644;48.914;2.254;2023-08-30T14:25:32;4.00;4.00;3.00
75960;PMS7003;64644;48.914;2.254;2023-08-30T14:27:58;3.00;3.00;3.00